Latest Coastal Weather Observations for Townsville

IDQ60701

Issued at 12:21 am EST Monday 22 April 2019 (issued every 10 minutes, with the page automatically refreshed every 10 minutes)

About coastal observations | Map of coastal stations | Coastal observations for QLD | Marine services | Other Formats
Station Details ID: 032040 Name: TOWNSVILLE AERO Lat: -19.25 Lon: 146.77 Height: 4.34 m
Data from the previous 72 hours. | See also: Recent months at Townsville
Date/Time
EST
Wind Sea
Height
m
Swell Vis
km
Cloud Weather Temp
°C
Press
hPa
Rain since
9am
mm
Dir  Spd
kts
Gust
kts
Height
m
Period
s
Dir
22/12:00am SE 4 5 - - - - 10 - - 23.8 1014.3 0.2
 
Date/Time
EST
Wind Sea
Height
m
Swell Vis
km
Cloud Weather Temp
°C
Press
hPa
Rain since
9am
mm
Dir  Spd
kts
Gust
kts
Height
m
Period
s
Dir
21/11:30pm S 5 7 - - - - 10 - - 24.5 1014.5 0.2
21/11:00pm E 7 9 - - - - 10 - - 24.5 1014.7 0.2
21/10:30pm SSE 5 6 - - - - 10 Partly cloudy - 24.7 1014.8 0.2
21/10:00pm S 4 5 - - - - 10 - - 24.8 1014.9 0.2
21/09:30pm ESE 5 7 - - - - 10 - - 24.8 1014.9 0.2
21/09:00pm ESE 5 7 - - - - 10 - - 24.9 1014.9 0.2
21/08:30pm SE 5 7 - - - - 10 - - 25.2 1014.5 0.2
21/08:00pm ENE 5 6 - - - - 10 - - 25.2 1014.2 0.2
21/07:30pm E 5 8 - - - - 10 - - 25.5 1013.6 0.2
21/07:00pm E 2 4 - - - - 10 - - 25.5 1013.3 0.2
21/06:30pm E 7 9 - - - - 10 - - 25.7 1012.8 0.2
21/06:00pm ENE 9 13 - - - - 10 - - 26.1 1012.7 0.2
21/05:30pm ENE 11 14 - - - - 10 - - 26.9 1012.5 0.2
21/05:00pm ENE 12 15 - - - - 10 - - 28.0 1012.1 0.2
21/04:30pm ENE 13 15 - - - - 10 - - 28.3 1011.9 0.2
21/04:00pm ENE 13 16 - - - - 10 - - 28.9 1011.7 0.2
21/03:30pm ENE 12 17 - - - - 10 - - 28.7 1011.7 0.2
21/03:00pm ENE 16 19 - - - - 10 Mostly clear Recent precip. 29.2 1011.9 0.2
21/02:30pm ENE 15 18 - - - - 10 Partly cloudy - 29.9 1012.0 0.0
21/02:00pm ENE 17 20 - - - - 10 Partly cloudy - 30.2 1012.2 0.0
21/01:30pm ENE 15 19 - - - - 10 - - 30.4 1012.3 0.0
21/01:00pm ENE 13 18 - - - - 10 Partly cloudy - 30.4 1012.7 0.0
21/12:30pm ESE 9 14 - - - - 10 Partly cloudy - 29.6 1013.0 0.0
21/12:00pm E 14 20 - - - - 10 Mostly cloudy - 30.3 1013.4 0.0
21/11:30am ESE 7 10 - - - - 10 Partly cloudy - 29.4 1013.8 0.0
21/11:00am ESE 9 13 - - - - 10 Partly cloudy - 29.8 1014.2 0.0
21/10:30am SE 8 12 - - - - 10 Partly cloudy - 28.4 1014.5 0.0
21/10:00am SE 8 11 - - - - 10 Partly cloudy - 28.1 1014.7 0.0
21/09:30am SE 8 13 - - - - 10 Partly cloudy - 28.0 1014.7 0.0
21/09:00am SSE 6 9 - - - - 10 Partly cloudy - 26.7 1014.6 0.0
21/08:30am SSW 6 7 - - - - 10 Partly cloudy - 25.5 1014.6 0.0
21/08:00am SSW 5 6 - - - - 10 Partly cloudy - 24.7 1014.2 0.0
21/07:30am W 4 5 - - - - 10 Partly cloudy - 24.0 1013.9 0.0
21/07:00am SSW 5 6 - - - - 10 Partly cloudy - 22.7 1013.7 0.0
21/06:30am SSW 4 5 - - - - 10 Partly cloudy - 22.3 1013.6 0.0
21/06:00am WSW 2 4 - - - - 10 - - 22.0 1013.4 0.0
21/05:30am CALM 0 4 - - - - 10 Partly cloudy - 21.8 1013.0 0.0
21/05:00am CALM 0 0 - - - - 10 Partly cloudy - 21.6 1012.7 0.0
21/04:30am CALM 0 0 - - - - 10 Partly cloudy - 21.0 1012.5 0.0
21/04:00am CALM 0 0 - - - - 10 - - 20.9 1012.6 0.0
21/03:30am CALM 0 0 - - - - 10 - - 21.3 1012.6 0.0
21/03:00am CALM 0 0 - - - - 10 - - 21.4 1012.9 0.0
21/02:30am SSW 1 5 - - - - 10 - - 21.4 1012.7 0.0
21/02:00am SW 5 6 - - - - 10 - - 23.4 1012.9 0.0
21/01:30am SE 1 5 - - - - 10 - - 22.6 1013.3 0.0
21/01:00am ESE 5 6 - - - - 10 - - 22.6 1013.7 0.0
21/12:30am SE 7 10 - - - - 10 - - 23.5 1014.0 0.0
21/12:00am SE 7 8 - - - - 10 - - 23.7 1014.2 0.0
 
Date/Time
EST
Wind Sea
Height
m
Swell Vis
km
Cloud Weather Temp
°C
Press
hPa
Rain since
9am
mm
Dir  Spd
kts
Gust
kts
Height
m
Period
s
Dir
20/11:30pm SE 7 9 - - - - 10 - - 23.9 1014.2 0.0
20/11:00pm SE 6 7 - - - - 10 Partly cloudy - 24.0 1014.5 0.0
20/10:30pm SE 7 10 - - - - 10 - - 24.4 1014.5 0.0
20/10:00pm SE 7 8 - - - - 10 - - 24.3 1014.4 0.0
20/09:30pm ESE 7 11 - - - - 10 - - 25.0 1014.3 0.0
20/09:00pm ESE 8 9 - - - - 10 Mostly clear - 25.3 1014.3 0.0
20/08:30pm ESE 8 12 - - - - 10 Partly cloudy - 25.7 1014.2 0.0
20/08:00pm ESE 9 12 - - - - 10 Partly cloudy - 25.8 1013.9 0.0
20/07:30pm E 9 14 - - - - 10 Cloudy - 26.0 1013.5 0.0
20/07:00pm E 7 10 - - - - 10 Partly cloudy - 25.8 1013.1 0.0
20/06:30pm E 3 5 - - - - 10 Partly cloudy - 25.7 1012.7 0.0
20/06:00pm ENE 7 9 - - - - 10 Mostly clear - 25.9 1012.4 0.0
20/05:30pm ENE 9 11 - - - - 10 - - 26.8 1012.3 0.0
20/05:00pm ENE 12 14 - - - - 10 - - 27.5 1012.0 0.0
20/04:30pm NE 11 14 - - - - 10 - - 27.9 1011.9 0.0
20/04:00pm ENE 12 15 - - - - 10 - - 28.4 1011.8 0.0
20/03:30pm ENE 12 15 - - - - 10 - - 28.8 1011.9 0.0
20/03:00pm ENE 13 17 - - - - 10 - - 29.7 1012.1 0.0
20/02:30pm ENE 14 18 - - - - 10 Partly cloudy - 30.1 1012.4 0.0
20/02:00pm ENE 13 17 - - - - 10 Partly cloudy - 28.5 1012.7 0.0
20/01:30pm ESE 11 16 - - - - 10 Partly cloudy - 29.7 1013.1 0.0
20/01:00pm SE 11 18 - - - - 10 Partly cloudy - 28.3 1013.5 0.0
20/12:30pm ESE 12 16 - - - - 10 Partly cloudy - 29.1 1013.9 0.0
20/12:00pm ESE 13 17 - - - - 10 Mostly clear - 29.8 1014.3 0.0
20/11:30am SSE 8 11 - - - - 10 Partly cloudy - 29.6 1015.0 0.0
20/11:00am SE 9 14 - - - - 10 Partly cloudy - 28.6 1015.5 0.0
20/10:30am SE 11 16 - - - - 10 - - 27.9 1015.9 0.0
20/10:00am SE 9 14 - - - - 10 - - 27.6 1016.1 0.0
20/09:30am SSE 10 16 - - - - 10 - - 27.2 1016.3 0.0
20/09:00am SE 10 14 - - - - 10 - - 26.4 1016.1 0.4
20/08:30am SSW 6 8 - - - - 10 - - 25.5 1016.0 0.4
20/08:00am CALM 0 0 - - - - 10 - - 24.0 1015.8 0.4
20/07:30am CALM 0 0 - - - - 10 - - 22.5 1015.5 0.4
20/07:00am CALM 0 0 - - - - 10 - - 20.9 1015.1 0.4
20/06:30am S 5 7 - - - - 10 - - 20.1 1014.7 0.4
20/06:00am S 7 7 - - - - 10 - - 20.6 1014.2 0.4
20/05:30am SSW 7 8 - - - - 10 - - 20.6 1014.3 0.4
20/05:00am SSW 7 8 - - - - 10 - - 20.6 1014.1 0.4
20/04:30am SSW 5 6 - - - - 10 - - 20.5 1014.1 0.4
20/04:00am NW 3 4 - - - - 10 - - 19.6 1014.2 0.4
20/03:30am NNW 4 4 - - - - 10 - - 19.6 1014.2 0.4
20/03:00am CALM 0 0 - - - - 10 - - 19.7 1014.2 0.4
20/02:30am CALM 0 0 - - - - 10 - - 20.1 1014.3 0.4
20/02:00am W 2 4 - - - - 10 - - 21.2 1014.6 0.4
20/01:30am SE 6 7 - - - - 10 - - 21.8 1014.9 0.4
20/01:00am SE 8 11 - - - - 10 - - 22.1 1015.1 0.4
20/12:30am ESE 6 7 - - - - 10 - - 21.8 1015.7 0.4
20/12:00am SE 6 6 - - - - 10 Mostly clear - 21.8 1016.0 0.4
 
Date/Time
EST
Wind Sea
Height
m
Swell Vis
km
Cloud Weather Temp
°C
Press
hPa
Rain since
9am
mm
Dir  Spd
kts
Gust
kts
Height
m
Period
s
Dir
19/11:30pm SE 5 6 - - - - 10 - - 22.1 1016.1 0.4
19/11:00pm SE 5 5 - - - - 10 - - 22.4 1016.3 0.4
19/10:30pm SSE 5 5 - - - - 10 - - 22.7 1016.5 0.4
19/10:00pm SW 4 5 - - - - 10 - - 23.1 1016.7 0.4
19/09:30pm W 3 4 - - - - 10 - - 23.2 1016.7 0.4
19/09:00pm SSW 3 3 - - - - 10 Cloudy - 24.4 1016.7 0.4
19/08:30pm SE 5 6 - - - - 10 - - 24.5 1016.6 0.4
19/08:00pm SSW 6 8 - - - - 10 Partly cloudy - 24.7 1016.4 0.4
19/07:30pm ESE 7 10 - - - - 10 Cloudy - 25.5 1015.9 0.4
19/07:00pm ESE 10 14 - - - - 10 Cloudy - 25.5 1015.7 0.4
19/06:30pm E 9 13 - - - - 10 Cloudy - 25.7 1015.6 0.4
19/06:00pm ESE 11 15 - - - - 10 Cloudy - 26.0 1015.4 0.4
19/05:30pm ESE 12 16 - - - - 10 Partly cloudy - 26.3 1015.1 0.4
19/05:00pm ESE 9 12 - - - - 10 Partly cloudy - 26.5 1014.9 0.4
19/04:30pm E 6 9 - - - - 10 Partly cloudy - 27.0 1014.6 0.4
19/04:00pm E 6 8 - - - - 10 Partly cloudy - 26.5 1014.5 0.4
19/03:30pm ESE 9 14 - - - - 10 Partly cloudy - 26.7 1014.4 0.4
19/03:00pm ESE 14 20 - - - - 10 Cloudy Rain 26.2 1014.6 0.2
19/02:37pm SE 18 27 - - - - 10 Partly cloudy - 24.8 1014.6 0.2
19/02:34pm ESE 17 27 - - - - 10 Partly cloudy - 26.0 1014.5 0.2
19/02:30pm E 15 20 - - - - 10 Partly cloudy - 28.9 1014.5 0.2
19/02:00pm E 13 17 - - - - 10 Partly cloudy - 28.8 1014.7 0.2
19/01:30pm ESE 11 16 - - - - 10 Partly cloudy - 27.4 1015.2 0.2
19/01:00pm E 15 20 - - - - 10 Partly cloudy - 27.7 1015.7 0.0
19/12:30pm ESE 15 22 - - - - 10 Partly cloudy - 29.8 1016.0 0.0
19/12:00pm ESE 17 24 - - - - 10 Mostly clear - 29.9 1016.6 0.0
19/11:30am ESE 16 21 - - - - 10 Partly cloudy - 29.0 1017.3 0.0
19/11:00am SE 14 22 - - - - 10 Partly cloudy - 28.8 1017.9 0.0
19/10:30am ESE 17 22 - - - - 10 Partly cloudy - 28.6 1018.2 0.0
19/10:00am SE 13 17 - - - - 10 Partly cloudy - 27.8 1018.4 0.0
19/09:30am SE 11 15 - - - - 10 Partly cloudy - 27.6 1018.3 0.0
19/09:00am SSE 11 14 - - - - 10 Cloudy - 25.9 1018.1 0.0
19/08:30am SSE 12 15 - - - - 10 Partly cloudy - 25.7 1017.9 0.0
19/08:00am SSE 8 10 - - - - 10 Partly cloudy - 25.1 1017.8 0.0
19/07:30am S 5 6 - - - - 10 Partly cloudy - 23.7 1017.6 0.0
19/07:00am SSW 7 8 - - - - 10 - - 21.9 1017.3 0.0
19/06:30am SSW 7 8 - - - - 10 Partly cloudy - 21.5 1016.7 0.0
19/06:00am SSW 6 7 - - - - 10 - - 21.3 1016.3 0.0
19/05:30am SSW 6 7 - - - - 10 - - 21.3 1016.0 0.0
19/05:00am SSW 8 9 - - - - 10 - - 21.3 1015.8 0.0
19/04:30am SSW 5 6 - - - - 10 - - 21.4 1015.6 0.0
19/04:00am SSW 6 7 - - - - 10 - - 21.5 1015.6 0.0
19/03:30am SSW 7 8 - - - - 10 - - 21.3 1015.7 0.0
19/03:00am SSW 6 8 - - - - 10 - - 21.4 1015.8 0.0
19/02:30am SSE 7 9 - - - - 10 - - 22.4 1016.0 0.0
19/02:00am SE 8 10 - - - - 10 - - 22.4 1016.5 0.0
19/01:30am SE 7 9 - - - - 10 - - 22.4 1017.0 0.0
19/01:00am ESE 6 8 - - - - 10 - - 22.3 1017.5 0.0
19/12:30am SE 6 7 - - - - 10 Partly cloudy - 22.6 1017.9 0.0

Other formats

Comma delimited format used in spreadsheet applications
http://www.bom.gov.au/fwo/IDQ60701/IDQ60701.94294.axf

JavaScript Object Notation format (JSON) in row-major order
http://www.bom.gov.au/fwo/IDQ60701/IDQ60701.94294.json

Data quality

Most of these data are generated automatically and are frequently updated. Quality checks on data are not normally performed. It is possible for incorrect values to appear. Refer to information at About Latest Weather Observations and please check the disclaimer before using these data.